Time;durP1;ratioP1;P1;durP2;ratioP2;P2;SDS_P1;SDS_P2;PMS_P1;PMS_P2;Temp;Humidity;BMP_temperature;BMP_pressure;BME280_temperature;BME280_humidity;BME280_pressure;Samples;Min_cycle;Max_cycle;Signal;HPM_P1;HPM_P2
2021/08/13 00:00:35;;;;;;;7.45;5.00;;;;;;;25.51;51.20;100861.53;5311898;26;20071;-85
2021/08/13 00:03:08;;;;;;;7.12;5.03;;;;;;;25.52;50.32;100863.25;5331911;26;20500;-84
2021/08/13 00:05:36;;;;;;;6.93;4.32;;;;;;;25.44;51.20;100854.75;5351496;26;20048;-83
2021/08/13 00:08:07;;;;;;;7.90;4.90;;;;;;;25.19;50.59;100862.59;5351871;26;20024;-84
2021/08/13 00:10:39;;;;;;;7.93;4.32;;;;;;;25.04;51.85;100858.97;5331588;26;20071;-84
2021/08/13 00:13:07;;;;;;;7.70;4.43;;;;;;;24.89;52.84;100864.28;5314105;26;20036;-83
2021/08/13 00:15:36;;;;;;;6.43;4.90;;;;;;;25.10;51.89;100861.28;5331990;26;20020;-83
2021/08/13 00:18:07;;;;;;;10.30;5.12;;;;;;;24.94;52.08;100863.97;5333163;26;20020;-84
2021/08/13 00:20:36;;;;;;;7.30;4.97;;;;;;;25.23;51.63;100861.44;5331790;26;20071;-84
2021/08/13 00:23:03;;;;;;;5.55;4.15;;;;;;;24.77;53.40;100864.13;5331956;26;20041;-83
2021/08/13 00:25:33;;;;;;;6.22;3.97;;;;;;;24.90;52.80;100859.75;5351723;26;20060;-84
2021/08/13 00:28:03;;;;;;;6.85;4.43;;;;;;;24.85;52.62;100854.63;5332178;26;20119;-83
2021/08/13 00:30:30;;;;;;;9.60;5.28;;;;;;;24.94;52.14;100858.59;5330989;26;20683;-84
2021/08/13 00:32:59;;;;;;;11.37;5.97;;;;;;;24.93;52.61;100860.44;5331645;26;20096;-83
2021/08/13 00:35:29;;;;;;;8.23;4.75;;;;;;;24.82;53.34;100853.94;5331384;26;20130;-83
2021/08/13 00:37:56;;;;;;;6.80;4.75;;;;;;;25.15;52.58;100856.53;5331337;26;20051;-84
2021/08/13 00:40:30;;;;;;;8.82;4.95;;;;;;;25.00;52.86;100852.91;5330515;26;20060;-84
2021/08/13 00:42:58;;;;;;;8.05;5.12;;;;;;;24.95;53.11;100852.31;5313489;26;20072;-83
2021/08/13 00:45:36;;;;;;;6.93;4.68;;;;;;;24.70;53.31;100858.22;5332487;26;20054;-83
2021/08/13 00:48:04;;;;;;;7.80;4.97;;;;;;;24.41;53.24;100857.16;5331492;26;20024;-84
2021/08/13 00:50:39;;;;;;;8.32;4.55;;;;;;;24.29;53.55;100863.22;5331355;26;20120;-84
2021/08/13 00:53:18;;;;;;;7.32;4.40;;;;;;;24.39;52.87;100851.88;5331871;26;20078;-85
2021/08/13 00:55:48;;;;;;;6.15;3.67;;;;;;;24.41;52.81;100858.03;5332326;26;20060;-84
2021/08/13 00:58:21;;;;;;;6.80;4.87;;;;;;;24.32;53.36;100846.94;5331385;26;20120;-83
2021/08/13 01:00:51;;;;;;;15.40;5.72;;;;;;;24.29;52.21;100845.28;5330880;26;20464;-83
2021/08/13 01:03:22;;;;;;;7.47;4.72;;;;;;;24.35;51.95;100854.81;5350568;26;20060;-84
2021/08/13 01:05:53;;;;;;;6.87;4.32;;;;;;;24.32;52.28;100837.03;5350625;26;20055;-83
2021/08/13 01:08:21;;;;;;;10.20;5.18;;;;;;;24.46;52.93;100841.69;5314217;26;20020;-86
2021/08/13 01:11:00;;;;;;;7.40;5.22;;;;;;;24.51;52.83;100842.28;5331974;26;20076;-86
2021/08/13 01:13:48;;;;;;;7.07;4.87;;;;;;;24.43;53.13;100847.22;5349791;26;20068;-83
2021/08/13 01:16:18;;;;;;;8.43;4.80;;;;;;;24.20;54.33;100853.84;5330981;26;20066;-85
2021/08/13 01:18:54;;;;;;;5.75;4.18;;;;;;;24.28;53.89;100848.94;5351479;26;20056;-83
2021/08/13 01:22:04;;;;;;;9.02;4.15;;;;;;;24.21;53.85;100853.78;5331541;26;20087;-85
2021/08/13 01:24:46;;;;;;;6.03;4.53;;;;;;;24.27;53.33;100849.88;5349949;26;20836;-83
2021/08/13 01:27:29;;;;;;;7.17;4.50;;;;;;;24.26;53.25;100842.75;5332185;26;20064;-84
2021/08/13 01:30:14;;;;;;;9.43;5.20;;;;;;;24.35;52.94;100844.94;5332221;26;20140;-84
2021/08/13 01:33:08;;;;;;;6.80;4.35;;;;;;;24.36;53.26;100843.13;5332513;26;20028;-84
2021/08/13 01:35:46;;;;;;;5.97;4.30;;;;;;;24.37;53.57;100848.41;5332979;26;20064;-84
2021/08/13 01:38:27;;;;;;;7.50;4.35;;;;;;;24.48;53.35;100843.34;5332411;26;20072;-83
2021/08/13 01:41:03;;;;;;;7.72;4.78;;;;;;;24.48;53.50;100845.16;5328011;26;20039;-84
2021/08/13 01:43:41;;;;;;;5.93;4.53;;;;;;;24.30;53.78;100848.84;5331877;26;20032;-83
2021/08/13 01:46:17;;;;;;;5.75;4.00;;;;;;;24.19;54.19;100839.56;5333771;26;20060;-83
2021/08/13 01:48:57;;;;;;;8.25;5.15;;;;;;;24.06;53.72;100846.56;5351822;26;20020;-82
2021/08/13 01:51:32;;;;;;;7.37;4.18;;;;;;;24.03;53.86;100846.72;5333151;26;20058;-83
2021/08/13 01:54:10;;;;;;;9.43;4.65;;;;;;;23.95;54.13;100848.97;5333677;26;20079;-83
2021/08/13 01:56:51;;;;;;;9.40;4.70;;;;;;;24.09;53.77;100840.16;5333789;26;20043;-83
2021/08/13 01:59:25;;;;;;;6.47;4.10;;;;;;;24.07;53.86;100850.97;5332616;26;20052;-83
2021/08/13 02:01:53;;;;;;;7.68;4.35;;;;;;;24.15;53.39;100843.37;5328383;27;20107;-83
2021/08/13 02:04:24;;;;;;;9.32;5.00;;;;;;;24.14;53.46;100840.75;5329311;27;20033;-83
2021/08/13 02:06:55;;;;;;;9.48;5.10;;;;;;;24.17;53.44;100845.97;5329745;27;20065;-83
2021/08/13 02:09:34;;;;;;;9.35;4.50;;;;;;;24.12;53.22;100843.56;5328923;27;20892;-85
2021/08/13 02:12:16;;;;;;;12.48;5.55;;;;;;;24.32;53.18;100845.09;5312617;27;20021;-83
2021/08/13 02:14:45;;;;;;;6.80;4.62;;;;;;;24.14;53.54;100847.00;5292188;27;20067;-83
2021/08/13 02:17:20;;;;;;;6.57;4.87;;;;;;;24.18;53.65;100843.22;5346345;26;20073;-84
2021/08/13 02:20:19;;;;;;;8.10;4.43;;;;;;;24.14;53.72;100838.06;5328296;27;20060;-83
2021/08/13 02:22:52;;;;;;;9.30;5.00;;;;;;;23.89;54.33;100838.56;5328471;27;20075;-83
2021/08/13 02:25:22;;;;;;;8.95;5.60;;;;;;;23.85;54.20;100837.00;5328579;27;20037;-82
2021/08/13 02:27:52;;;;;;;12.73;6.43;;;;;;;23.66;54.41;100848.69;5329120;26;20036;-83
2021/08/13 02:30:23;;;;;;;6.80;4.65;;;;;;;23.74;53.96;100846.50;5328366;27;20035;-83
2021/08/13 02:32:55;;;;;;;10.40;5.20;;;;;;;23.79;53.73;100838.19;5329635;27;20028;-84
2021/08/13 02:35:34;;;;;;;6.47;4.82;;;;;;;23.82;53.78;100848.75;5329689;26;20043;-83
2021/08/13 02:38:27;;;;;;;12.25;6.18;;;;;;;23.75;53.67;100853.59;5330085;26;20081;-84
2021/08/13 02:41:04;;;;;;;9.75;5.82;;;;;;;23.86;53.26;100850.34;5329527;27;20075;-84
2021/08/13 02:43:52;;;;;;;8.20;5.15;;;;;;;23.89;53.11;100855.53;5329655;27;20053;-83
2021/08/13 02:46:25;;;;;;;5.95;4.50;;;;;;;23.82;53.37;100853.25;5330736;26;20112;-83
2021/08/13 02:49:05;;;;;;;9.65;4.82;;;;;;;23.98;53.36;100854.16;5329511;27;20056;-83
2021/08/13 02:51:37;;;;;;;7.10;4.72;;;;;;;24.07;53.42;100852.81;5330677;26;20017;-83
2021/08/13 02:54:19;;;;;;;13.23;6.00;;;;;;;23.66;54.03;100859.41;5330053;27;20052;-83
2021/08/13 02:57:04;;;;;;;9.73;5.35;;;;;;;23.73;52.42;100851.94;5330043;27;20049;-84
2021/08/13 02:59:45;;;;;;;14.18;7.45;;;;;;;23.55;53.64;100857.28;5329991;27;20091;-84
2021/08/13 03:02:22;;;;;;;14.30;5.68;;;;;;;23.69;53.66;100850.34;5349632;26;20111;-84
2021/08/13 03:05:04;;;;;;;10.73;5.65;;;;;;;23.66;53.71;100853.19;5352414;26;20039;-82
2021/08/13 03:07:38;;;;;;;11.02;6.15;;;;;;;23.08;55.26;100857.91;5352388;26;20110;-84
2021/08/13 03:10:19;;;;;;;10.75;6.03;;;;;;;23.26;54.49;100856.12;5355008;26;20067;-86
2021/08/13 03:13:14;;;;;;;7.87;5.60;;;;;;;23.18;54.45;100862.81;5360214;26;20099;-85
2021/08/13 03:15:52;;;;;;;9.45;5.40;;;;;;;23.15;54.61;100862.97;5372526;26;20054;-83
2021/08/13 03:18:24;;;;;;;6.95;4.95;;;;;;;22.94;55.23;100872.94;5337352;26;20048;-82
2021/08/13 03:21:10;;;;;;;10.57;5.53;;;;;;;22.49;56.61;100874.22;5355391;26;20043;-83
2021/08/13 03:23:40;;;;;;;8.10;4.95;;;;;;;22.72;56.20;100865.09;5373574;26;20076;-83
2021/08/13 03:26:17;;;;;;;10.55;4.80;;;;;;;22.94;55.36;100870.25;5355433;26;20104;-84
2021/08/13 03:28:59;;;;;;;10.38;5.00;;;;;;;22.98;54.75;100867.37;5354522;26;20029;-83
2021/08/13 03:31:37;;;;;;;6.95;4.43;;;;;;;23.10;54.30;100871.25;5357337;26;20033;-83
2021/08/13 03:34:17;;;;;;;26.45;7.97;;;;;;;23.37;53.07;100862.75;5340292;26;20421;-84
2021/08/13 03:36:50;;;;;;;19.10;6.22;;;;;;;23.50;53.74;100863.84;5355119;26;20048;-83
2021/08/13 03:39:20;;;;;;;14.50;6.22;;;;;;;23.66;54.11;100864.78;5374123;26;20425;-83
2021/08/13 03:41:47;;;;;;;13.00;6.40;;;;;;;23.46;54.17;100865.81;5353657;26;20074;-83
2021/08/13 03:44:14;;;;;;;8.30;5.75;;;;;;;23.47;54.08;100869.34;5373386;26;20145;-83
2021/08/13 03:46:45;;;;;;;9.35;6.03;;;;;;;23.40;53.94;100865.28;5354282;26;20165;-84
2021/08/13 03:49:20;;;;;;;14.85;6.90;;;;;;;23.45;53.85;100872.13;5375398;26;20740;-85
2021/08/13 03:51:57;;;;;;;12.00;6.97;;;;;;;23.39;53.30;100867.09;5356495;26;20083;-82
2021/08/13 03:54:30;;;;;;;14.07;7.07;;;;;;;23.49;53.43;100871.03;5374880;26;20072;-83
2021/08/13 03:57:04;;;;;;;9.77;6.20;;;;;;;23.68;53.26;100870.94;5355455;26;20028;-82
2021/08/13 03:59:36;;;;;;;10.52;6.60;;;;;;;23.66;53.83;100885.38;5354519;26;20173;-83
2021/08/13 04:02:04;;;;;;;10.50;5.95;;;;;;;23.83;53.45;100887.22;5351878;26;20122;-84
2021/08/13 04:04:37;;;;;;;8.27;5.40;;;;;;;23.88;53.58;100874.37;5353004;26;20073;-82
2021/08/13 04:07:06;;;;;;;8.90;5.35;;;;;;;23.88;53.44;100874.37;5353624;26;20083;-82
2021/08/13 04:09:35;;;;;;;9.50;5.57;;;;;;;23.95;53.49;100867.75;5353891;26;20120;-82
2021/08/13 04:12:10;;;;;;;10.07;6.03;;;;;;;23.86;53.75;100869.12;5373480;26;20025;-82
2021/08/13 04:14:37;;;;;;;19.35;6.55;;;;;;;23.76;54.14;100871.41;5352714;26;20119;-82
2021/08/13 04:17:05;;;;;;;17.33;6.37;;;;;;;23.73;54.77;100885.00;5352740;26;20128;-84
2021/08/13 04:19:32;;;;;;;18.08;7.30;;;;;;;24.05;53.85;100885.09;5371702;26;20106;-83
2021/08/13 04:22:02;;;;;;;17.90;9.15;;;;;;;24.24;53.23;100888.50;5352183;26;20501;-82
2021/08/13 04:24:30;;;;;;;16.12;7.22;;;;;;;24.20;53.76;100880.69;5352098;26;20082;-83
2021/08/13 04:26:57;;;;;;;9.23;5.18;;;;;;;24.63;52.57;100881.88;5349567;26;20054;-84
2021/08/13 04:29:24;;;;;;;11.12;5.65;;;;;;;25.09;51.41;100879.25;5346751;26;20065;-83
2021/08/13 04:31:51;;;;;;;9.65;5.05;;;;;;;25.44;50.48;100876.28;5365536;26;20128;-84
2021/08/13 04:34:18;;;;;;;13.57;5.95;;;;;;;25.72;49.91;100874.63;5344720;26;20056;-83
2021/08/13 04:36:45;;;;;;;16.27;6.60;;;;;;;26.36;48.45;100872.44;5344670;26;20327;-83
2021/08/13 04:39:12;;;;;;;17.52;6.37;;;;;;;26.75;47.84;100877.06;5344949;26;20103;-85
2021/08/13 04:41:39;;;;;;;11.12;5.57;;;;;;;26.88;47.25;100877.97;5345730;26;20452;-83
2021/08/13 04:44:06;;;;;;;16.80;5.78;;;;;;;26.68;47.10;100879.31;5345415;26;20071;-85
2021/08/13 04:46:33;;;;;;;12.63;6.45;;;;;;;26.93;46.50;100880.38;5345560;26;20090;-82
2021/08/13 04:49:01;;;;;;;11.60;6.68;;;;;;;26.79;46.53;100889.38;5345563;26;20118;-84
2021/08/13 04:51:28;;;;;;;14.80;7.07;;;;;;;26.73;46.48;100890.63;5345740;26;20064;-86
2021/08/13 04:53:55;;;;;;;15.65;6.57;;;;;;;26.52;48.04;100880.41;5345088;26;20052;-84
2021/08/13 04:56:22;;;;;;;14.27;6.05;;;;;;;26.25;49.15;100883.88;5344355;26;20127;-83
2021/08/13 04:58:52;;;;;;;13.07;6.35;;;;;;;26.50;48.67;100888.56;5344176;26;20061;-83
2021/08/13 05:01:19;;;;;;;15.25;6.95;;;;;;;26.85;47.74;100880.03;5343974;26;20068;-83
2021/08/13 05:03:46;;;;;;;13.32;5.75;;;;;;;27.20;46.75;100883.09;5343907;26;20114;-83
2021/08/13 05:06:17;;;;;;;11.45;5.45;;;;;;;27.44;45.55;100882.38;5344228;26;20053;-83
2021/08/13 05:08:45;;;;;;;13.65;6.03;;;;;;;27.57;44.87;100878.72;5344165;26;20068;-83
2021/08/13 05:11:12;;;;;;;15.82;6.28;;;;;;;27.67;44.69;100881.66;5344271;26;20082;-82
2021/08/13 05:13:39;;;;;;;19.33;7.22;;;;;;;28.08;43.62;100886.84;5344088;26;20105;-82
2021/08/13 05:16:06;;;;;;;7.47;4.87;;;;;;;28.54;42.45;100888.09;5334793;26;20056;-83
2021/08/13 05:18:37;;;;;;;15.57;6.22;;;;;;;28.85;40.91;100883.97;5316667;27;20142;-80
2021/08/13 05:21:15;;;;;;;9.38;5.60;;;;;;;29.17;40.79;100892.41;5312525;27;20410;-80
2021/08/13 05:23:54;;;;;;;10.93;4.72;;;;;;;29.21;40.27;100887.63;5317288;27;20067;-81
2021/08/13 05:26:34;;;;;;;10.18;5.12;;;;;;;29.24;41.24;100890.09;5317861;27;20057;-81
2021/08/13 05:29:06;;;;;;;20.15;6.00;;;;;;;29.77;39.61;100895.94;5316599;27;20324;-81
2021/08/13 05:31:39;;;;;;;10.00;5.62;;;;;;;29.76;40.27;100898.75;5317176;27;20407;-82
2021/08/13 05:34:08;;;;;;;9.00;5.47;;;;;;;29.69;39.65;100901.09;5316804;27;20064;-80
2021/08/13 05:36:37;;;;;;;9.93;5.82;;;;;;;29.97;38.59;100891.63;5316575;27;20071;-81
2021/08/13 05:39:18;;;;;;;11.23;5.62;;;;;;;30.12;38.26;100892.28;5313904;27;20081;-81
2021/08/13 05:41:49;;;;;;;12.10;5.70;;;;;;;30.07;39.13;100892.62;5317330;27;20084;-82
2021/08/13 05:44:23;;;;;;;13.57;6.22;;;;;;;30.69;39.04;100895.81;5317736;27;20068;-81
2021/08/13 05:46:50;;;;;;;11.70;6.82;;;;;;;30.82;36.98;100899.25;5316787;27;20058;-81
2021/08/13 05:49:38;;;;;;;;;;;;;;;;;;;;;
2021/08/13 05:53:03;;;;;;;;;;;;;;;;;;;;;
2021/08/13 05:55:56;;;;;;;8.50;5.90;;;;;;;30.59;38.14;100892.13;5318926;27;20108;-85
2021/08/13 05:59:03;;;;;;;;;;;;;;;;;;;;;
2021/08/13 06:01:51;;;;;;;10.85;6.10;;;;;;;30.67;37.74;100895.94;5295135;26;20389;-83
2021/08/13 06:04:34;;;;;;;9.70;6.40;;;;;;;30.78;37.08;100892.34;5316560;27;20065;-82
2021/08/13 06:07:41;;;;;;;;;;;;;;;;;;;;;
2021/08/13 06:14:08;;;;;;;11.02;5.90;;;;;;;30.53;39.38;100886.25;5318659;27;20068;-83
2021/08/13 06:16:58;;;;;;;9.15;5.18;;;;;;;31.14;39.21;100890.28;5317005;27;20116;-82
2021/08/13 06:19:53;;;;;;;8.65;5.75;;;;;;;30.39;39.93;100896.50;5316305;27;20057;-83
2021/08/13 06:27:07;;;;;;;;;;;;;;;;;;;;;
2021/08/13 06:30:30;;;;;;;;;;;;;;;;;;;;;
2021/08/13 06:33:31;;;;;;;;;;;;;;;;;;;;;
2021/08/13 06:36:51;;;;;;;;;;;;;;;;;;;;;
2021/08/13 06:39:58;;;;;;;8.63;5.62;;;;;;;29.13;43.24;100915.25;5164164;27;20102;-84
2021/08/13 06:47:10;;;;;;;;;;;;;;;;;;;;;
2021/08/13 06:50:28;;;;;;;;;;;;;;;;;;;;;
2021/08/13 06:53:16;;;;;;;13.68;6.37;;;;;;;29.41;43.07;100908.63;5069353;28;20132;-83
2021/08/13 06:57:14;;;;;;;9.38;5.28;;;;;;;29.69;42.74;100908.34;5064169;28;20088;-83
2021/08/13 06:59:57;;;;;;;10.10;5.00;;;;;;;29.60;42.08;100916.19;5106459;27;20090;-81
2021/08/13 07:02:29;;;;;;;13.48;6.43;;;;;;;29.64;40.51;100911.41;5164417;27;20069;-80
2021/08/13 07:04:56;;;;;;;10.23;6.68;;;;;;;30.26;41.77;100907.44;5165121;27;20083;-82
2021/08/13 07:07:23;;;;;;;7.68;5.30;;;;;;;29.79;40.91;100906.62;5164944;27;20095;-80
2021/08/13 07:09:54;;;;;;;10.20;5.93;;;;;;;30.05;40.11;100910.84;5165312;27;20055;-83
2021/08/13 07:12:23;;;;;;;7.72;5.10;;;;;;;30.60;38.81;100916.41;5147374;27;20153;-81
2021/08/13 07:15:13;;;;;;;17.30;5.45;;;;;;;30.99;38.75;100915.00;5167481;27;20075;-80
2021/08/13 07:17:44;;;;;;;12.77;6.40;;;;;;;30.80;42.29;100917.53;5273659;27;20152;-81
2021/08/13 07:21:06;;;;;;;;;;;;;;;;;;;;;
2021/08/13 07:24:21;;;;;;;;;;;;;;;;;;;;;
2021/08/13 07:28:11;;;;;;;8.68;5.32;;;;;;;32.16;36.56;100912.31;5249033;27;20148;-83
2021/08/13 07:40:24;;;;;;;9.52;5.60;;;;;;;31.65;37.01;100917.56;5248442;27;20394;-82
2021/08/13 07:43:39;;;;;;;;;;;;;;;;;;;;;
2021/08/13 07:46:43;;;;;;;;;;;;;;;;;;;;;
2021/08/13 07:49:48;;;;;;;8.77;5.43;;;;;;;32.09;34.69;100928.28;5271098;27;20061;-84
2021/08/13 07:52:38;;;;;;;7.43;5.12;;;;;;;31.76;35.45;100918.47;5250799;27;20088;-85
2021/08/13 07:55:46;;;;;;;10.13;5.60;;;;;;;31.05;36.63;100920.91;5270799;27;20057;-82
2021/08/13 07:58:37;;;;;;;13.02;5.80;;;;;;;31.97;34.50;100921.22;5271668;27;20083;-82
2021/08/13 08:01:58;;;;;;;10.10;5.25;;;;;;;32.12;36.12;100928.87;5270141;27;20930;-83
2021/08/13 08:04:44;;;;;;;8.90;5.68;;;;;;;32.41;34.73;100928.13;5303770;26;20127;-82
2021/08/13 08:07:34;;;;;;;11.35;5.55;;;;;;;31.61;36.48;100926.09;5340987;26;20109;-84
2021/08/13 08:10:10;;;;;;;14.02;5.43;;;;;;;31.56;36.66;100926.53;5339619;26;20056;-83
2021/08/13 08:12:40;;;;;;;7.32;4.72;;;;;;;31.73;36.56;100924.19;5339550;26;20125;-84
2021/08/13 08:15:18;;;;;;;9.57;5.35;;;;;;;32.25;33.75;100927.78;5339587;26;20063;-83
2021/08/13 08:18:19;;;;;;;11.32;6.35;;;;;;;32.81;36.20;100932.72;5251066;27;20103;-84
2021/08/13 08:21:52;;;;;;;9.43;5.97;;;;;;;33.20;35.01;100930.09;5249409;27;20054;-85
2021/08/13 08:29:18;;;;;;;9.98;5.43;;;;;;;34.07;33.04;100935.47;5180253;27;20073;-82
2021/08/13 08:36:28;;;;;;;;;;;;;;;;;;;;;
2021/08/13 08:39:39;;;;;;;;;;;;;;;;;;;;;
2021/08/13 08:46:17;;;;;;;;;;;;;;;;;;;;;
2021/08/13 08:49:54;;;;;;;9.27;4.62;;;;;;;35.18;30.02;100951.87;5144042;27;20648;-82
2021/08/13 08:57:31;;;;;;;;;;;;;;;;;;;;;
2021/08/13 09:00:19;;;;;;;8.75;5.05;;;;;;;37.04;26.86;100957.91;5010561;28;20668;-86
2021/08/13 09:30:53;;;;;;;10.40;5.12;;;;;;;38.77;22.69;100962.19;5076307;28;20165;-82
2021/08/13 09:34:33;;;;;;;7.07;4.65;;;;;;;38.91;22.35;100960.59;5066866;28;20090;-82
2021/08/13 09:45:55;;;;;;;;;;;;;;;;;;;;;
2021/08/13 10:44:35;;;;;;;;;;;;;;;;;;;;;
2021/08/13 11:02:47;;;;;;;7.15;5.30;;;;;;;41.28;20.75;100914.91;5006498;28;20608;-83
2021/08/13 11:31:00;;;;;;;8.73;6.15;;;;;;;41.14;21.29;100902.03;5187004;27;20130;-86
2021/08/13 11:49:48;;;;;;;8.10;5.85;;;;;;;43.65;19.13;100894.34;5144837;27;20086;-85
2021/08/13 13:35:17;;;;;;;;;;;;;;;;;;;;;
2021/08/13 13:45:55;;;;;;;7.85;5.18;;;;;;;43.62;19.00;100809.00;5078740;28;20116;-83
2021/08/13 13:49:49;;;;;;;;;;;;;;;;;;;;;
2021/08/13 13:57:38;;;;;;;;;;;;;;;;;;;;;
2021/08/13 14:04:17;;;;;;;7.03;5.50;;;;;;;43.98;18.21;100800.22;5081162;27;20078;-81
2021/08/13 14:08:52;;;;;;;;;;;;;;;;;;;;;
2021/08/13 14:16:15;;;;;;;7.65;5.25;;;;;;;44.01;18.59;100802.53;5056243;28;20068;-82
2021/08/13 14:23:07;;;;;;;6.15;4.70;;;;;;;43.26;18.32;100788.19;5039888;28;20110;-82
2021/08/13 14:26:39;;;;;;;7.62;5.28;;;;;;;43.20;18.71;100792.66;5053938;28;20106;-81
2021/08/13 14:29:49;;;;;;;8.63;5.68;;;;;;;42.57;19.21;100793.00;5101073;27;20508;-83
2021/08/13 14:44:18;;;;;;;6.72;5.75;;;;;;;41.78;20.01;100793.53;5062140;28;20123;-83
2021/08/13 14:47:34;;;;;;;9.25;5.65;;;;;;;41.28;21.06;100801.88;5043378;28;20084;-83
2021/08/13 15:01:45;;;;;;;5.70;5.05;;;;;;;40.93;21.91;100814.69;4948695;28;20291;-82
2021/08/13 15:04:15;;;;;;;8.85;5.53;;;;;;;40.25;23.20;100821.56;5035781;28;20092;-82
2021/08/13 15:06:42;;;;;;;11.07;5.85;;;;;;;40.27;22.96;100820.34;5079890;28;20155;-85
2021/08/13 15:09:09;;;;;;;7.55;5.35;;;;;;;40.13;23.29;100818.44;5089192;28;20086;-84
2021/08/13 15:11:38;;;;;;;6.65;5.00;;;;;;;39.94;23.65;100817.09;5121472;28;20147;-85
2021/08/13 15:14:08;;;;;;;5.68;4.40;;;;;;;39.91;23.79;100814.75;5120960;27;20122;-83
2021/08/13 15:16:40;;;;;;;9.25;5.18;;;;;;;39.92;24.01;100820.06;5121200;28;20135;-81
2021/08/13 15:19:07;;;;;;;6.72;5.22;;;;;;;39.85;24.38;100818.25;5121274;27;20450;-85
2021/08/13 15:21:43;;;;;;;9.00;5.20;;;;;;;39.77;24.76;100824.72;5087118;28;20454;-83
2021/08/13 15:24:11;;;;;;;7.22;5.28;;;;;;;39.74;25.11;100822.31;5168653;27;20088;-84
2021/08/13 15:26:40;;;;;;;8.10;5.40;;;;;;;39.58;25.86;100830.75;5211951;27;20535;-83
2021/08/13 15:29:10;;;;;;;10.85;5.28;;;;;;;39.45;25.89;100823.16;5212303;27;20143;-85
2021/08/13 15:31:40;;;;;;;9.23;5.53;;;;;;;39.38;26.22;100817.53;5255186;27;20084;-86
2021/08/13 15:34:10;;;;;;;6.72;5.53;;;;;;;39.19;26.64;100816.16;5256169;27;20077;-86
2021/08/13 15:36:38;;;;;;;9.70;5.57;;;;;;;39.28;26.56;100812.28;5256062;27;20106;-83
2021/08/13 15:39:08;;;;;;;14.57;5.87;;;;;;;39.17;26.86;100798.12;5255992;27;20077;-83
2021/08/13 15:41:36;;;;;;;23.25;6.35;;;;;;;39.24;26.96;100793.59;5255917;27;20128;-85
2021/08/13 15:44:05;;;;;;;7.40;5.07;;;;;;;39.08;27.59;100792.72;5270186;27;20069;-83
2021/08/13 15:46:35;;;;;;;13.88;6.07;;;;;;;39.12;27.08;100798.69;5273904;27;20117;-83
2021/08/13 15:49:08;;;;;;;6.97;5.35;;;;;;;38.85;27.29;100791.88;5273853;27;20053;-83
2021/08/13 15:51:38;;;;;;;8.10;5.40;;;;;;;38.92;27.93;100792.03;5273944;27;20077;-84
2021/08/13 15:54:12;;;;;;;13.25;5.85;;;;;;;38.59;28.44;100797.72;5273820;27;20116;-84
2021/08/13 15:56:45;;;;;;;;;;;;;;;38.54;28.38;100795.53;5274604;27;20120;-83
2021/08/13 15:59:12;;;;;;;8.48;5.20;;;;;;;38.52;28.26;100799.50;5256792;27;19965;-84
2021/08/13 16:01:44;;;;;;;9.63;4.90;;;;;;;38.42;28.52;100798.84;5273851;27;20448;-84
2021/08/13 16:04:17;;;;;;;8.32;5.25;;;;;;;38.30;29.68;100804.75;5255929;27;20074;-83
2021/08/13 16:06:45;;;;;;;13.95;6.80;;;;;;;38.32;29.88;100808.12;5273802;27;20096;-86
2021/08/13 16:09:18;;;;;;;8.80;4.93;;;;;;;38.34;29.69;100803.34;5274057;27;20084;-85
2021/08/13 16:11:47;;;;;;;9.25;5.35;;;;;;;38.24;28.72;100801.84;5273590;27;20065;-83
2021/08/13 16:14:14;;;;;;;12.40;6.00;;;;;;;38.29;28.10;100797.53;5273780;27;20062;-83
2021/08/13 16:16:43;;;;;;;9.85;5.15;;;;;;;38.29;27.60;100796.69;5273555;27;20111;-83
2021/08/13 16:19:10;;;;;;;8.43;4.97;;;;;;;38.16;28.43;100787.16;5273888;27;20064;-83
2021/08/13 16:21:42;;;;;;;9.70;5.53;;;;;;;38.14;28.15;100791.09;5273999;27;20096;-84
2021/08/13 16:24:16;;;;;;;11.50;4.80;;;;;;;38.06;26.55;100788.38;5280555;27;20438;-83
2021/08/13 16:26:44;;;;;;;11.20;4.95;;;;;;;37.96;26.05;100785.87;5299388;27;20068;-85
2021/08/13 16:29:11;;;;;;;13.68;5.55;;;;;;;37.87;26.57;100795.12;5299115;27;20194;-83
2021/08/13 16:31:43;;;;;;;6.55;4.57;;;;;;;37.84;26.92;100790.00;5299518;27;20115;-86
2021/08/13 16:34:21;;;;;;;10.57;5.10;;;;;;;37.82;26.90;100784.69;5300783;27;20081;-84
2021/08/13 16:36:52;;;;;;;9.60;5.82;;;;;;;37.72;27.11;100775.84;5299482;27;20470;-83
2021/08/13 16:39:20;;;;;;;8.98;5.07;;;;;;;37.64;27.36;100776.69;5299040;27;20080;-84
2021/08/13 16:41:54;;;;;;;9.65;4.68;;;;;;;37.61;27.34;100774.31;5300782;27;20073;-85
2021/08/13 16:44:26;;;;;;;9.00;4.90;;;;;;;37.49;27.59;100775.72;5299346;27;20083;-83
2021/08/13 16:46:55;;;;;;;8.02;5.10;;;;;;;37.29;27.85;100770.59;5318849;27;20064;-83
2021/08/13 16:49:22;;;;;;;8.48;5.57;;;;;;;37.23;28.20;100771.28;5299079;27;20067;-84
2021/08/13 16:51:52;;;;;;;8.63;4.70;;;;;;;37.10;28.53;100768.25;5299051;27;20500;-83
2021/08/13 16:54:19;;;;;;;10.57;5.28;;;;;;;37.05;28.94;100774.22;5299207;27;20126;-84
2021/08/13 16:56:50;;;;;;;11.00;5.40;;;;;;;36.89;28.96;100770.59;5300059;27;20118;-83
2021/08/13 16:59:17;;;;;;;11.65;5.43;;;;;;;36.82;29.29;100771.28;5299055;27;20114;-84
2021/08/13 17:01:44;;;;;;;10.32;5.32;;;;;;;36.63;30.09;100773.53;5300131;27;20065;-82
2021/08/13 17:04:12;;;;;;;10.30;6.28;;;;;;;36.10;30.88;100773.72;5300004;27;20085;-85
2021/08/13 17:06:39;;;;;;;11.38;6.97;;;;;;;35.75;31.58;100779.34;5300401;27;20136;-83
2021/08/13 17:09:06;;;;;;;10.98;5.95;;;;;;;35.83;31.25;100780.25;5299929;27;20060;-86
2021/08/13 17:11:35;;;;;;;8.20;5.85;;;;;;;35.86;31.43;100777.19;5300023;27;20703;-83
2021/08/13 17:14:20;;;;;;;8.02;5.20;;;;;;;35.52;32.11;100779.03;5302877;27;20073;-85
2021/08/13 17:16:47;;;;;;;11.25;5.20;;;;;;;35.51;32.41;100780.06;5300382;27;20097;-83
2021/08/13 17:19:17;;;;;;;7.87;4.85;;;;;;;35.12;33.10;100777.72;5299817;27;20113;-82
2021/08/13 17:21:44;;;;;;;9.57;5.72;;;;;;;35.04;33.17;100768.47;5299993;27;20073;-82
2021/08/13 17:24:11;;;;;;;9.13;5.32;;;;;;;34.96;33.49;100768.38;5299992;27;20073;-82
2021/08/13 17:26:39;;;;;;;11.45;5.93;;;;;;;35.02;33.34;100767.72;5300301;27;20460;-86
2021/08/13 17:29:06;;;;;;;7.70;5.15;;;;;;;34.84;33.83;100766.06;5299947;27;20088;-82
2021/08/13 17:31:33;;;;;;;7.30;5.18;;;;;;;34.89;33.88;100769.19;5300159;27;20110;-85
2021/08/13 17:34:02;;;;;;;12.98;6.53;;;;;;;34.79;33.97;100769.25;5300073;27;20061;-84
2021/08/13 17:36:29;;;;;;;11.50;5.62;;;;;;;34.65;34.25;100762.50;5300515;27;20674;-86
2021/08/13 17:38:56;;;;;;;8.60;6.40;;;;;;;34.70;34.27;100764.72;5299975;27;20087;-82
2021/08/13 17:41:25;;;;;;;11.45;6.07;;;;;;;34.71;34.13;100763.69;5300031;27;20429;-84
2021/08/13 17:43:52;;;;;;;8.32;5.87;;;;;;;34.68;34.35;100758.56;5300180;27;20086;-82
2021/08/13 17:46:19;;;;;;;9.93;5.10;;;;;;;34.67;34.70;100773.22;5300258;27;20445;-83
2021/08/13 17:48:46;;;;;;;8.88;5.78;;;;;;;34.59;34.92;100765.81;5299535;27;20370;-83
2021/08/13 17:51:17;;;;;;;8.77;4.85;;;;;;;34.59;35.21;100766.69;5299888;27;20552;-83
2021/08/13 17:53:44;;;;;;;11.48;6.70;;;;;;;34.56;35.15;100777.03;5299965;27;20138;-84
2021/08/13 17:56:11;;;;;;;10.00;5.95;;;;;;;34.45;35.72;100772.66;5300050;27;20627;-84
2021/08/13 17:58:38;;;;;;;11.12;5.93;;;;;;;34.40;35.97;100777.72;5299911;27;20313;-85
2021/08/13 18:01:06;;;;;;;61.22;10.32;;;;;;;34.29;36.21;100783.38;5300044;27;20074;-84
2021/08/13 18:03:37;;;;;;;22.80;7.60;;;;;;;34.23;36.43;100775.81;5299951;27;20069;-82
2021/08/13 18:06:12;;;;;;;17.90;6.12;;;;;;;34.06;36.64;100786.56;5299414;27;20112;-86
2021/08/13 18:08:52;;;;;;;11.48;6.28;;;;;;;33.61;37.79;100795.44;5301310;27;20931;-82
2021/08/13 18:11:59;;;;;;;30.42;7.75;;;;;;;33.38;38.05;100803.06;5303424;27;20371;-81
2021/08/13 18:14:41;;;;;;;108.75;18.42;;;;;;;33.33;37.97;100801.81;5298873;27;20691;-82
2021/08/13 18:17:22;;;;;;;48.80;10.43;;;;;;;33.07;38.80;100802.44;5300192;27;20064;-85
2021/08/13 18:20:09;;;;;;;21.87;7.53;;;;;;;33.19;38.00;100798.53;5302079;27;20056;-84
2021/08/13 18:22:41;;;;;;;8.00;5.75;;;;;;;33.22;38.55;100809.13;5300591;27;20431;-82
2021/08/13 18:25:17;;;;;;;16.85;7.78;;;;;;;33.34;37.88;100811.69;5300485;27;20071;-83
2021/08/13 18:27:54;;;;;;;14.87;7.00;;;;;;;33.17;37.68;100819.59;5300168;27;20057;-82
2021/08/13 18:30:35;;;;;;;13.52;6.82;;;;;;;33.08;37.79;100816.91;5299719;27;20126;-82